Aviation Digital Data Service (ADDS)

Output produced by METARs form (2040 UTC 20 July 2018)
found at http://www.aviationweather.gov/adds/metars/
 
KSTF 202035Z AUTO 14006KT 10SM SCT037 SCT044 32/26 A2991 RMK AO2
KSTF 202015Z AUTO 17004KT 10SM SCT035 BKN044 32/25 A2992 RMK AO2
KSTF 201955Z AUTO 15008KT 10SM SCT033 34/26 A2991 RMK AO2
KSTF 201935Z AUTO 14009KT 10SM SCT032 33/26 A2991 RMK AO2
KSTF 201915Z AUTO 15007KT 10SM CLR 33/25 A2993 RMK AO2
KSTF 201855Z AUTO 17005KT 10SM CLR 33/25 A2993 RMK AO2
KSTF 201835Z AUTO 00000KT 10SM CLR 33/25 A2995 RMK AO2
KSTF 201815Z AUTO 15003KT 10SM CLR 33/25 A2996 RMK AO2
KSTF 201755Z AUTO 00000KT 10SM CLR 32/25 A2996 RMK AO2
KSTF 201735Z AUTO 19003KT 10SM SCT024 32/25 A2997 RMK AO2
KSTF 201715Z AUTO 15004KT 10SM SCT024 32/25 A2997 RMK AO2
KSTF 201655Z AUTO 17003KT 10SM CLR 31/25 A2998 RMK AO2
KSTF 201635Z AUTO 14003KT 10SM CLR 31/25 A2997 RMK AO2
KSTF 201615Z AUTO 13003KT 10SM CLR 31/25 A2997 RMK AO2
KSTF 201555Z AUTO 14004KT 10SM CLR 30/25 A2997 RMK AO2
KSTF 201535Z AUTO 16004KT 10SM CLR 30/25 A2997 RMK AO2
KSTF 201515Z AUTO 18005KT 10SM CLR 29/25 A2997 RMK AO2
KSTF 201455Z AUTO 16005KT 10SM CLR 29/25 A2997 RMK AO2
KSTF 201435Z AUTO 16005KT 10SM CLR 28/25 A2997 RMK AO2
KSTF 201415Z AUTO 16005KT 10SM CLR 28/25 A2997 RMK AO2
KSTF 201355Z AUTO 14003KT 10SM CLR 28/25 A2997 RMK AO2
KSTF 201335Z AUTO 14004KT 10SM CLR 27/25 A2997 RMK AO2
KSTF 201315Z AUTO 15004KT 10SM CLR 26/25 A2997 RMK AO2
KSTF 201255Z AUTO 13003KT 10SM CLR 25/24 A2996 RMK AO2
KSTF 201235Z AUTO 13003KT 10SM CLR 24/23 A2995 RMK AO2
KSTF 201215Z AUTO 00000KT 7SM SCT065 SCT080 23/23 A2995 RMK AO2
KSTF 201155Z AUTO 00000KT 4SM BR SCT065 SCT080 23/22 A2994 RMK AO2
KSTF 201135Z AUTO 00000KT 4SM BR CLR 23/22 A2994 RMK AO2
KSTF 201115Z AUTO 00000KT 5SM BR CLR 23/22 A2994 RMK AO2
KSTF 201055Z AUTO 00000KT 10SM CLR 23/22 A2993 RMK AO2
KSTF 201035Z AUTO 00000KT 10SM CLR 23/22 A2993 RMK AO2
KSTF 201015Z AUTO 00000KT 7SM SCT075 23/23 A2993 RMK AO2
KSTF 200955Z AUTO 00000KT 5SM BR BKN075 23/23 A2993 RMK AO2
KSTF 200935Z AUTO 00000KT 3SM BR CLR 23/22 A2992 RMK AO2
KSTF 200915Z AUTO 22003KT 5SM BR CLR 24/23 A2992 RMK AO2
KSTF 200855Z AUTO 00000KT 7SM CLR 24/23 A2992 RMK AO2
KSTF 200835Z AUTO 00000KT 7SM SCT070 24/23 A2992 RMK AO2
KSTF 200815Z AUTO 17003KT 10SM SCT046 SCT070 BKN080 25/23 A2991 RMK AO2
KSTF 200755Z AUTO 17004KT 7SM SCT046 BKN070 OVC095 25/23 A2992 RMK AO2
KSTF 200735Z AUTO 18003KT 7SM RA SCT046 SCT065 OVC100 25/23 A2991 RMK AO2
KSTF 200715Z AUTO 17003KT 10SM SCT070 BKN110 25/23 A2991 RMK AO2
KSTF 200655Z AUTO 00000KT 10SM BKN070 OVC100 25/23 A2991 RMK AO2
KSTF 200635Z AUTO 16003KT 10SM BKN080 OVC100 25/23 A2990 RMK AO2
KSTF 200615Z AUTO 16004KT 10SM BKN080 BKN090 BKN120 25/23 A2991 RMK AO2
KSTF 200555Z AUTO 19004KT 10SM -RA SCT047 SCT055 BKN100 25/23 A2993 RMK AO2
KSTF 200535Z AUTO 00000KT 10SM BKN100 25/24 A2995 RMK AO2
KSTF 200515Z AUTO 11003KT 10SM BKN100 25/24 A2993 RMK AO2
KSTF 200455Z AUTO 00000KT 10SM SCT100 25/24 A2995 RMK AO2
KSTF 200435Z AUTO 16003KT 10SM CLR 25/24 A2994 RMK AO2
KSTF 200415Z AUTO 19003KT 10SM CLR 25/24 A2994 RMK AO2
KSTF 200355Z AUTO 15006KT 10SM CLR 26/24 A2995 RMK AO2
KSTF 200335Z AUTO 17003KT 10SM CLR 26/24 A2995 RMK AO2
KSTF 200315Z AUTO 16004KT 10SM CLR 26/24 A2995 RMK AO2
KSTF 200255Z AUTO 14004KT 10SM CLR 26/24 A2995 RMK AO2
KSTF 200235Z AUTO 14003KT 10SM CLR 26/24 A2994 RMK AO2
KSTF 200215Z AUTO 12003KT 10SM CLR 26/24 A2994 RMK AO2
KSTF 200155Z AUTO 13003KT 10SM CLR 27/25 A2992 RMK AO2
KSTF 200135Z AUTO 11003KT 10SM CLR 26/25 A2992 RMK AO2
KSTF 200115Z AUTO 14003KT 10SM CLR 27/24 A2991 RMK AO2
KSTF 200055Z AUTO 13003KT 10SM CLR 27/25 A2989 RMK AO2
KSTF 200035Z AUTO 14003KT 10SM CLR 28/25 A2989 RMK AO2
KSTF 200015Z AUTO 13003KT 10SM CLR 30/24 A2990 RMK AO2
KSTF 192355Z AUTO 00000KT 10SM CLR 31/25 A2989 RMK AO2
KSTF 192335Z AUTO 00000KT 10SM CLR 31/23 A2989 RMK AO2
KSTF 192315Z AUTO 00000KT 10SM CLR 31/24 A2989 RMK AO2
KSTF 192255Z AUTO 19003KT 10SM SCT030 32/25 A2989 RMK AO2
KSTF 192235Z AUTO 00000KT 10SM SCT030 32/24 A2989 RMK AO2
KSTF 192215Z AUTO 00000KT 10SM CLR 31/23 A2990 RMK AO2
KSTF 192155Z AUTO 00000KT 10SM CLR 32/23 A2990 RMK AO2
KSTF 192135Z AUTO 00000KT 10SM CLR 32/24 A2991 RMK AO2
KSTF 192115Z AUTO 00000KT 10SM CLR 31/24 A2992 RMK AO2
KSTF 192055Z AUTO 00000KT 10SM CLR 31/24 A2992 RMK AO2
KSTF 192035Z AUTO 18003KT 10SM CLR 31/24 A2992 RMK AO2
KSTF 192015Z AUTO 25003KT 10SM SCT025 SCT033 31/23 A2993 RMK AO2
KSTF 191955Z AUTO 21003KT 10SM SCT025 30/25 A2994 RMK AO2
KSTF 191935Z AUTO 00000KT 10SM CLR 30/23 A2994 RMK AO2
KSTF 191915Z AUTO 00000KT 10SM CLR 28/23 A2995 RMK AO2
KSTF 191855Z AUTO 18004KT 10SM CLR 30/24 A2995 RMK AO2
KSTF 191835Z AUTO 00000KT 10SM CLR 28/25 A2996 RMK AO2
KSTF 191815Z AUTO 17004KT 10SM CLR 26/23 A2996 RMK AO2
KSTF 191755Z AUTO 17005KT 10SM SCT009 28/24 A2997 RMK AO2
KSTF 191735Z AUTO 14007KT 10SM SCT006 27/24 A2998 RMK AO2
KSTF 191715Z AUTO 13007KT 10SM SCT006 BKN034 26/23 A2999 RMK AO2
KSTF 191655Z AUTO 13006KT 10SM OVC034 25/23 A2999 RMK AO2
KSTF 191635Z AUTO 10008KT 10SM SCT009 SCT018 OVC032 23/22 A3000 RMK AO2
KSTF 191615Z AUTO 09005G17KT 7SM -RA SCT009 BKN015 OVC023 23/22 A3001 RMK AO2
KSTF 191555Z AUTO 11005KT 7SM RA BKN009 BKN015 OVC021 25/22 A3000 RMK AO2
KSTF 191535Z AUTO 13009KT 10SM BKN011 OVC014 25/23 A2999 RMK AO2
KSTF 191515Z AUTO 00000KT 10SM BKN007 OVC016 26/24 A2999 RMK AO2
KSTF 191455Z AUTO 00000KT 10SM OVC007 25/23 A2999 RMK AO2
KSTF 191435Z AUTO 00000KT 10SM OVC009 25/23 A2999 RMK AO2
KSTF 191415Z AUTO 00000KT 10SM OVC009 25/23 A2999 RMK AO2
KSTF 191355Z AUTO 13004KT 10SM OVC009 25/23 A2999 RMK AO2
KSTF 191335Z AUTO 00000KT 10SM BKN011 BKN023 OVC100 24/23 A2998 RMK AO2
KSTF 191315Z AUTO 00000KT 10SM SCT021 OVC100 23/23 A2998 RMK AO2
KSTF 191255Z AUTO 10003KT 10SM SCT075 OVC100 23/22 A2997 RMK AO2
KSTF 191235Z AUTO 00000KT 10SM SCT060 BKN075 OVC110 23/22 A2996 RMK AO2
KSTF 191215Z AUTO 00000KT 10SM SCT090 BKN110 23/22 A2995 RMK AO2
KSTF 191155Z AUTO 00000KT 7SM OVC100 22/22 A2995 RMK AO2
KSTF 191135Z AUTO 00000KT 7SM SCT070 OVC100 23/22 A2995 RMK AO2
KSTF 191115Z AUTO 00000KT 7SM BKN070 BKN080 OVC090 23/22 A2995 RMK AO2
KSTF 191055Z AUTO 00000KT 7SM SCT070 OVC090 23/22 A2995 RMK AO2
KSTF 191035Z AUTO 00000KT 7SM RA SCT070 SCT080 OVC090 23/22 A2995 RMK AO2
KSTF 191015Z AUTO 00000KT 10SM OVC090 23/22 A2995 RMK AO2
KSTF 190955Z AUTO 00000KT 10SM BKN090 OVC110 23/22 A2994 RMK AO2
KSTF 190935Z AUTO 00000KT 7SM BKN110 22/22 A2994 RMK AO2
KSTF 190915Z AUTO 00000KT 10SM CLR 23/22 A2993 RMK AO2
KSTF 190855Z AUTO 00000KT 10SM CLR 23/22 A2993 RMK AO2
KSTF 190835Z AUTO 00000KT 10SM CLR 22/22 A2993 RMK AO2
KSTF 190815Z AUTO 00000KT 10SM CLR 22/22 A2992 RMK AO2
KSTF 190755Z AUTO 00000KT 10SM CLR 22/22 A2992 RMK AO2
KSTF 190735Z AUTO 00000KT 10SM CLR 23/22 A2992 RMK AO2
KSTF 190715Z AUTO 00000KT 10SM CLR 23/22 A2992 RMK AO2
KSTF 190655Z AUTO 29003KT 10SM SCT027 23/22 A2993 RMK AO2
KSTF 190635Z AUTO 00000KT 10SM SCT027 23/22 A2994 RMK AO2
KSTF 190615Z AUTO 00000KT 10SM CLR 23/22 A2994 RMK AO2
KSTF 190555Z AUTO 00000KT 10SM CLR 23/22 A2995 RMK AO2
KSTF 190535Z AUTO 00000KT 10SM SCT039 SCT080 SCT100 23/22 A2995 RMK AO2
KSTF 190515Z AUTO 00000KT 10SM SCT009 SCT039 SCT049 23/22 A2995 RMK AO2
KSTF 190455Z AUTO 15007G15KT 10SM SCT009 SCT039 SCT049 23/22 A2996 RMK AO2
KSTF 190435Z AUTO 00000KT 10SM CLR 23/22 A2995 RMK AO2
KSTF 190415Z AUTO 00000KT 10SM CLR 24/22 A2996 RMK AO2
KSTF 190355Z AUTO 00000KT 10SM CLR 24/22 A2995 RMK AO2
KSTF 190335Z AUTO 00000KT 10SM CLR 24/22 A2995 RMK AO2
KSTF 190315Z AUTO 00000KT 10SM CLR 24/22 A2995 RMK AO2
KSTF 190255Z AUTO 00000KT 10SM CLR 25/22 A2995 RMK AO2
KSTF 190235Z AUTO 00000KT 10SM CLR 25/22 A2995 RMK AO2
KSTF 190215Z AUTO 25003KT 10SM CLR 25/22 A2995 RMK AO2
KSTF 190155Z AUTO 21005KT 10SM CLR 25/23 A2994 RMK AO2
KSTF 190135Z AUTO 00000KT 10SM -RA SCT037 SCT050 SCT060 26/23 A2994 RMK AO2
KSTF 190115Z AUTO 00000KT 10SM SCT036 27/23 A2993 RMK AO2
KSTF 190055Z AUTO 00000KT 10SM CLR 27/23 A2993 RMK AO2
KSTF 190035Z AUTO 32003KT 10SM CLR 28/23 A2993 RMK AO2
KSTF 190015Z AUTO 32003KT 10SM CLR 28/25 A2992 RMK AO2
KSTF 182355Z AUTO 00000KT 10SM CLR 30/25 A2993 RMK AO2
KSTF 182335Z AUTO 00000KT 10SM CLR 30/23 A2992 RMK AO2
KSTF 182315Z AUTO 35003KT 10SM CLR 31/24 A2992 RMK AO2
KSTF 182255Z AUTO 35004KT 10SM CLR 31/24 A2992 RMK AO2
KSTF 182235Z AUTO 00000KT 10SM CLR 31/24 A2992 RMK AO2
KSTF 182215Z AUTO 36003KT 10SM CLR 31/23 A2992 RMK AO2
KSTF 182155Z AUTO 36005KT 10SM CLR 31/23 A2991 RMK AO2
KSTF 182135Z AUTO 35004KT 7SM SCT046 SCT060 SCT100 32/23 A2992 RMK AO2
KSTF 182115Z AUTO 36004KT 10SM SCT046 BKN060 BKN075 32/23 A2992 RMK AO2
KSTF 182055Z AUTO 00000KT 10SM SCT046 33/22 A2992 RMK AO2
KSTF 182035Z AUTO 11004KT 10SM SCT046 32/23 A2991 RMK AO2
KSTF 182015Z AUTO 00000KT 10SM CLR 33/24 A2992 RMK AO2
KSTF 181955Z AUTO 36003KT 10SM SCT039 SCT048 SCT050 33/23 A2994 RMK AO2
KSTF 181935Z AUTO 00000KT 10SM SCT040 SCT048 BKN060 32/24 A2995 RMK AO2
KSTF 181915Z AUTO 02004KT 10SM BKN039 BKN050 BKN065 32/23 A2995 RMK AO2
KSTF 181855Z AUTO 00000KT 10SM SCT036 BKN045 BKN055 32/25 A2996 RMK AO2
KSTF 181835Z AUTO 00000KT 10SM SCT032 BKN041 BKN055 32/23 A2997 RMK AO2
KSTF 181815Z AUTO 00000KT 10SM SCT032 BKN043 32/24 A2998 RMK AO2
KSTF 181755Z AUTO 08003KT 10SM BKN034 32/24 A2998 RMK AO2
KSTF 181735Z AUTO 16003KT 10SM SCT028 31/25 A2999 RMK AO2
KSTF 181715Z AUTO 00000KT 10SM SCT030 SCT037 31/24 A2999 RMK AO2
KSTF 181655Z AUTO 00000KT 10SM CLR 31/24 A3000 RMK AO2
KSTF 181635Z AUTO 00000KT 10SM CLR 30/23 A3001 RMK AO2
KSTF 181615Z AUTO 00000KT 10SM SCT025 30/23 A3002 RMK AO2
KSTF 181555Z AUTO 04003KT 10SM CLR 30/23 A3001 RMK AO2
KSTF 181535Z AUTO 00000KT 10SM CLR 29/23 A3002 RMK AO2
KSTF 181515Z AUTO 31003KT 10SM CLR 29/23 A3002 RMK AO2
KSTF 181455Z AUTO 00000KT 10SM CLR 28/23 A3002 RMK AO2
KSTF 181435Z AUTO 00000KT 10SM CLR 28/23 A3002 RMK AO2
KSTF 181415Z AUTO 00000KT 10SM CLR 27/23 A3002 RMK AO2
KSTF 181355Z AUTO 00000KT 10SM CLR 27/23 A3002 RMK AO2
KSTF 181335Z AUTO 00000KT 10SM CLR 27/22 A3002 RMK AO2
KSTF 181315Z AUTO 00000KT 10SM CLR 26/22 A3002 RMK AO2
KSTF 181255Z AUTO 00000KT 10SM CLR 26/23 A3002 RMK AO2
KSTF 181235Z AUTO 00000KT 10SM CLR 25/23 A3002 RMK AO2
KSTF 181215Z AUTO 00000KT 10SM CLR 23/22 A3002 RMK AO2
KSTF 181155Z AUTO 00000KT 10SM CLR 23/22 A3002 RMK AO2
KSTF 181135Z AUTO 00000KT 10SM CLR 22/22 A3001 RMK AO2
KSTF 181115Z AUTO 00000KT 10SM CLR 22/22 A3002 RMK AO2
KSTF 181055Z AUTO 00000KT 10SM CLR 22/22 A3000 RMK AO2
KSTF 181035Z AUTO 00000KT 10SM CLR 22/22 A3000 RMK AO2
KSTF 181015Z AUTO 00000KT 10SM CLR 22/22 A2999 RMK AO2
KSTF 180955Z AUTO 00000KT 10SM CLR 22/22 A2999 RMK AO2
KSTF 180935Z AUTO 00000KT 10SM CLR 22/22 A2999 RMK AO2
KSTF 180915Z AUTO 00000KT 7SM CLR 22/22 A2999 RMK AO2
KSTF 180855Z AUTO 00000KT 7SM CLR 22/22 A2998 RMK AO2
KSTF 180835Z AUTO 00000KT 5SM BR CLR 22/22 A2999 RMK AO2
KSTF 180815Z AUTO 00000KT 5SM BR CLR 22/22 A2998 RMK AO2
KSTF 180755Z AUTO 00000KT 7SM CLR 22/22 A2998 RMK AO2
KSTF 180735Z AUTO 00000KT 7SM CLR 23/22 A2998 RMK AO2
KSTF 180715Z AUTO 00000KT 10SM CLR 23/22 A2998 RMK AO2
KSTF 180655Z AUTO 00000KT 5SM BR CLR 23/22 A2998 RMK AO2
KSTF 180635Z AUTO 00000KT 10SM CLR 23/22 A2998 RMK AO2
KSTF 180615Z AUTO 00000KT 10SM CLR 23/22 A2999 RMK AO2
KSTF 180555Z AUTO 00000KT 10SM CLR 23/22 A2999 RMK AO2
KSTF 180535Z AUTO 00000KT 10SM CLR 23/22 A2999 RMK AO2
KSTF 180515Z AUTO 00000KT 10SM CLR 23/22 A3000 RMK AO2
KSTF 180455Z AUTO 00000KT 10SM CLR 23/22 A3001 RMK AO2
KSTF 180435Z AUTO 00000KT 10SM CLR 23/22 A3002 RMK AO2
KSTF 180415Z AUTO 00000KT 10SM CLR 23/22 A3002 RMK AO2
KSTF 180355Z AUTO 00000KT 10SM CLR 23/22 A3003 RMK AO2
KSTF 180335Z AUTO 00000KT 10SM CLR 23/22 A3003 RMK AO2
KSTF 180315Z AUTO 00000KT 10SM CLR 23/22 A3003 RMK AO2
KSTF 180255Z AUTO 00000KT 10SM SCT028 24/22 A3004 RMK AO2
KSTF 180235Z AUTO 09005KT 10SM SCT024 SCT028 BKN043 25/22 A3004 RMK AO2
KSTF 180215Z AUTO 07010G18KT 10SM SCT024 SCT044 SCT110 26/23 A3003 RMK AO2
KSTF 180155Z AUTO 00000KT 10SM CLR 26/24 A3000 RMK AO2
KSTF 180135Z AUTO 00000KT 10SM CLR 27/23 A3000 RMK AO2
KSTF 180115Z AUTO 10005KT 10SM CLR 27/24 A3000 RMK AO2
KSTF 180055Z AUTO 00000KT 10SM CLR 27/24 A2999 RMK AO2
KSTF 180035Z AUTO 16004KT 10SM CLR 28/25 A2999 RMK AO2
KSTF 180015Z AUTO 00000KT 10SM CLR 30/25 A2998 RMK AO2
KSTF 172355Z AUTO 25003KT 10SM CLR 30/24 A2997 RMK AO2
KSTF 172335Z AUTO 27004KT 10SM SCT040 SCT046 31/24 A2996 RMK AO2
KSTF 172315Z AUTO 00000KT 10SM SCT041 SCT048 SCT055 31/25 A2997 RMK AO2
KSTF 172255Z AUTO 00000KT 10SM SCT042 BKN048 OVC110 32/25 A2996 RMK AO2
KSTF 172235Z AUTO 00000KT 10SM SCT042 BKN050 31/25 A2997 RMK AO2
KSTF 172215Z AUTO 00000KT 10SM SCT042 SCT048 SCT055 32/24 A2996 RMK AO2
KSTF 172155Z AUTO 00000KT 10SM CLR 31/23 A2995 RMK AO2
KSTF 172135Z AUTO 00000KT 10SM SCT065 33/23 A2995 RMK AO2
KSTF 172115Z AUTO 22004KT 10SM SCT055 33/24 A2996 RMK AO2
KSTF 172055Z AUTO 23003KT 10SM SCT055 SCT070 BKN090 32/23 A2996 RMK AO2